Time;durP1;ratioP1;P1;durP2;ratioP2;P2;SDS_P1;SDS_P2;PMS_P1;PMS_P2;Temp;Humidity;BMP_temperature;BMP_pressure;BME280_temperature;BME280_humidity;BME280_pressure;Samples;Min_cycle;Max_cycle;Signal;HPM_P1;HPM_P2
2023/07/02 00:00:06;;;;;;;;;;;;;;;18.55;66.04;99815.81;107660;1258;61830;-81
2023/07/02 00:02:35;;;;;;;;;;;;;;;18.56;66.15;99807.42;107421;1260;124605;-82
2023/07/02 00:05:02;;;;;;;;;;;;;;;18.56;66.44;99799.44;108095;1256;74701;-81
2023/07/02 00:07:30;;;;;;;;;;;;;;;18.56;66.67;99799.78;108094;1260;67305;-81
2023/07/02 00:09:57;;;;;;;;;;;;;;;18.56;66.86;99802.45;107536;1260;125281;-82
2023/07/02 00:12:24;;;;;;;;;;;;;;;18.56;66.90;99802.98;107513;1259;60572;-81
2023/07/02 00:14:53;;;;;;;;;;;;;;;18.55;67.22;99798.21;107643;1257;125088;-83
2023/07/02 00:17:21;;;;;;;;;;;;;;;18.56;67.50;99790.37;107531;1257;73366;-81
2023/07/02 00:19:51;;;;;;;;;;;;;;;18.56;67.46;99786.64;108946;1259;125193;-81
2023/07/02 00:22:18;;;;;;;;;;;;;;;18.56;67.57;99787.34;108964;1254;73071;-81
2023/07/02 00:24:47;;;;;;;;;;;;;;;18.55;67.74;99781.33;108939;1254;59033;-83
2023/07/02 00:27:15;;;;;;;;;;;;;;;18.53;67.79;99784.57;109066;1255;125110;-82
2023/07/02 00:29:55;;;;;;;;;;;;;;;18.52;67.97;99781.94;108283;1257;74649;-83
2023/07/02 00:32:21;;;;;;;;;;;;;;;18.48;68.07;99778.48;107374;1259;124751;-82
2023/07/02 00:34:50;;;;;;;;;;;;;;;18.45;68.19;99779.06;107317;1260;72701;-82
2023/07/02 00:37:17;;;;;;;;;;;;;;;18.43;68.30;99779.47;107444;1254;61289;-83
2023/07/02 00:39:46;;;;;;;;;;;;;;;18.41;68.44;99779.52;107546;1254;124859;-83
2023/07/02 00:42:13;;;;;;;;;;;;;;;18.41;68.63;99781.65;107326;1260;74702;-83
2023/07/02 00:44:40;;;;;;;;;;;;;;;18.41;68.74;99780.05;107502;1259;124873;-81
2023/07/02 00:47:08;;;;;;;;;;;;;;;18.40;68.75;99777.40;108905;1255;72689;-82
2023/07/02 00:49:35;;;;;;;;;;;;;;;18.40;68.88;99772.80;107711;1260;59753;-82
2023/07/02 00:52:03;;;;;;;;;;;;;;;18.41;68.83;99772.77;107494;1257;126025;-82
2023/07/02 00:54:30;;;;;;;;;;;;;;;18.39;68.97;99770.16;107509;1255;74753;-82
2023/07/02 00:57:02;;;;;;;;;;;;;;;18.38;68.96;99763.23;107270;1257;123947;-83
2023/07/02 00:59:30;;;;;;;;;;;;;;;18.37;69.08;99765.22;107443;1260;72744;-84
2023/07/02 01:01:57;;;;;;;;;;;;;;;18.36;69.14;99760.79;107513;1256;124198;-83
2023/07/02 01:04:27;;;;;;;;;;;;;;;18.33;69.18;99758.73;107566;1260;60879;-83
2023/07/02 01:07:00;;;;;;;;;;;;;;;18.32;69.32;99754.68;107369;1257;74543;-83
2023/07/02 01:09:39;;;;;;;;;;;;;;;18.29;69.39;99751.73;107439;1259;124016;-83
2023/07/02 01:12:07;;;;;;;;;;;;;;;18.24;69.48;99749.86;107578;1260;72492;-83
2023/07/02 01:14:36;;;;;;;;;;;;;;;18.19;69.53;99746.61;107716;1258;124102;-82
2023/07/02 01:17:06;;;;;;;;;;;;;;;18.18;69.73;99744.33;107930;1258;60815;-81
2023/07/02 01:19:51;;;;;;;;;;;;;;;18.17;69.87;99745.08;107907;1260;73326;-82
2023/07/02 01:22:22;;;;;;;;;;;;;;;18.13;69.89;99738.95;108139;1260;66801;-81
2023/07/02 01:24:52;;;;;;;;;;;;;;;18.10;70.02;99739.71;108054;1260;73238;-82
2023/07/02 01:27:20;;;;;;;;;;;;;;;18.06;70.11;99738.03;107708;1258;123970;-82
2023/07/02 01:29:47;;;;;;;;;;;;;;;18.02;70.14;99733.85;107707;1260;61370;-82
2023/07/02 01:32:14;;;;;;;;;;;;;;;17.97;70.26;99732.02;107626;1257;124400;-83
2023/07/02 01:34:43;;;;;;;;;;;;;;;17.93;70.43;99729.44;107656;1256;65964;-83
2023/07/02 01:37:10;;;;;;;;;;;;;;;17.89;70.60;99728.61;107481;1260;71975;-81
2023/07/02 01:39:37;;;;;;;;;;;;;;;17.88;70.81;99726.70;107526;1254;124072;-81
2023/07/02 01:42:11;;;;;;;;;;;;;;;17.87;71.05;99724.77;107915;1255;60183;-82
2023/07/02 01:44:38;;;;;;;;;;;;;;;17.85;71.23;99720.90;107626;1259;124045;-81
2023/07/02 01:47:05;;;;;;;;;;;;;;;17.85;71.25;99718.59;107581;1256;65922;-81
2023/07/02 01:49:37;;;;;;;;;;;;;;;17.81;71.27;99714.04;107635;1254;71445;-82
2023/07/02 01:52:05;;;;;;;;;;;;;;;17.77;71.39;99718.23;107779;1254;124571;-83
2023/07/02 01:54:34;;;;;;;;;;;;;;;17.72;71.46;99714.04;107745;1254;60187;-84
2023/07/02 01:57:05;;;;;;;;;;;;;;;17.69;71.62;99715.00;107390;1254;124757;-84
2023/07/02 01:59:32;;;;;;;;;;;;;;;17.66;71.78;99708.67;107506;1257;65790;-84
2023/07/02 02:01:59;;;;;;;;;;;;;;;17.64;71.87;99703.38;107713;1259;124738;-83
2023/07/02 02:04:27;;;;;;;;;;;;;;;17.65;72.10;99704.79;108072;1257;61145;-83
2023/07/02 02:06:55;;;;;;;;;;;;;;;17.66;72.20;99698.39;107709;1254;60411;-82
2023/07/02 02:09:23;;;;;;;;;;;;;;;17.69;72.35;99698.14;107544;1254;125390;-82
2023/07/02 02:11:50;;;;;;;;;;;;;;;17.69;72.37;99698.48;107800;1254;65527;-84
2023/07/02 02:14:24;;;;;;;;;;;;;;;17.69;72.42;99698.84;107814;1260;125617;-83
2023/07/02 02:16:51;;;;;;;;;;;;;;;17.70;72.42;99698.65;107898;1254;61761;-84
2023/07/02 02:19:18;;;;;;;;;;;;;;;17.72;72.57;99698.08;107609;1254;60858;-83
2023/07/02 02:21:45;;;;;;;;;;;;;;;17.72;72.61;99698.27;107563;1261;124904;-82
2023/07/02 02:24:12;;;;;;;;;;;;;;;17.73;72.73;99698.07;109062;1257;66940;-82
2023/07/02 02:26:39;;;;;;;;;;;;;;;17.75;72.85;99693.59;108827;1254;124809;-82
2023/07/02 02:29:07;;;;;;;;;;;;;;;17.78;72.97;99692.99;108339;1256;61128;-83
2023/07/02 02:31:43;;;;;;;;;;;;;;;17.81;72.95;99697.02;107357;1255;59717;-83
2023/07/02 02:34:10;;;;;;;;;;;;;;;17.84;73.03;99695.52;107467;1254;124808;-83
2023/07/02 02:36:39;;;;;;;;;;;;;;;17.88;73.04;99698.30;107416;1254;65749;-83
2023/07/02 02:39:08;;;;;;;;;;;;;;;17.93;73.21;99697.85;107637;1257;124650;-83
2023/07/02 02:41:35;;;;;;;;;;;;;;;17.95;73.14;99696.73;107845;1254;61215;-83
2023/07/02 02:44:04;;;;;;;;;;;;;;;17.98;73.20;99691.86;107832;1259;124874;-83
2023/07/02 02:46:32;;;;;;;;;;;;;;;18.02;73.21;99694.43;107942;1255;74212;-83
2023/07/02 02:48:59;;;;;;;;;;;;;;;18.04;73.28;99689.95;107439;1254;65948;-83
2023/07/02 02:51:26;;;;;;;;;;;;;;;18.05;73.24;99691.70;107475;1257;125102;-83
2023/07/02 02:53:58;;;;;;;;;;;;;;;18.08;73.28;99685.80;107601;1254;60483;-83
2023/07/02 02:56:25;;;;;;;;;;;;;;;18.12;73.28;99680.39;107348;1254;125320;-83
2023/07/02 02:58:52;;;;;;;;;;;;;;;18.12;73.27;99679.48;108339;1257;74608;-82
2023/07/02 03:01:19;;;;;;;;;;;;;;;18.17;73.26;99673.15;107569;1254;65908;-81
2023/07/02 03:03:46;;;;;;;;;;;;;;;18.21;73.31;99669.34;107846;1254;125255;-82
2023/07/02 03:06:14;;;;;;;;;;;;;;;18.25;73.32;99671.02;107852;1258;59459;-83
2023/07/02 03:08:41;;;;;;;;;;;;;;;18.28;73.29;99673.23;107596;1254;125446;-81
2023/07/02 03:11:08;;;;;;;;;;;;;;;18.32;73.36;99667.66;107776;1254;73871;-81
2023/07/02 03:13:35;;;;;;;;;;;;;;;18.36;73.39;99668.97;107832;1257;67591;-81
2023/07/02 03:16:02;;;;;;;;;;;;;;;18.40;73.34;99668.52;107927;1259;124647;-82
2023/07/02 03:18:29;;;;;;;;;;;;;;;18.42;73.37;99666.34;107715;1257;59943;-81
2023/07/02 03:21:04;;;;;;;;;;;;;;;18.45;73.32;99664.30;107872;1254;125127;-82
2023/07/02 03:23:32;;;;;;;;;;;;;;;18.46;73.28;99661.98;107742;1259;74407;-82
2023/07/02 03:25:59;;;;;;;;;;;;;;;18.48;73.32;99661.59;107560;1255;125200;-81
2023/07/02 03:28:26;;;;;;;;;;;;;;;18.51;73.36;99658.30;107663;1257;72692;-82
2023/07/02 03:30:53;;;;;;;;;;;;;;;18.55;73.39;99656.78;108052;1254;59243;-82
2023/07/02 03:33:21;;;;;;;;;;;;;;;18.58;73.32;99654.23;107763;1256;124697;-81
2023/07/02 03:35:49;;;;;;;;;;;;;;;18.61;73.33;99656.27;107844;1254;73431;-81
2023/07/02 03:38:28;;;;;;;;;;;;;;;18.64;73.18;99653.00;107402;1254;124453;-86
2023/07/02 03:41:09;;;;;;;;;;;;;;;18.69;73.27;99650.92;107652;1254;71398;-85
2023/07/02 03:43:36;;;;;;;;;;;;;;;18.74;73.27;99653.45;107556;1258;59440;-86
2023/07/02 03:46:03;;;;;;;;;;;;;;;18.77;73.11;99656.75;107282;1256;124014;-85
2023/07/02 03:48:36;;;;;;;;;;;;;;;18.77;73.05;99656.39;107416;1254;74723;-85
2023/07/02 03:51:03;;;;;;;;;;;;;;;18.79;73.07;99652.09;107102;1254;124069;-86
2023/07/02 03:53:30;;;;;;;;;;;;;;;18.81;73.00;99653.30;107368;1257;71738;-84
2023/07/02 03:56:04;;;;;;;;;;;;;;;18.90;73.21;99656.44;107424;1254;124145;-85
2023/07/02 03:58:51;;;;;;;;;;;;;;;19.09;73.32;99656.48;107408;1254;62165;-85
2023/07/02 04:01:18;;;;;;;;;;;;;;;19.32;73.31;99656.53;107427;1254;72539;-84
2023/07/02 04:04:19;;;;;;;;;;;;;;;19.55;73.01;99654.45;108044;1254;123926;-94
2023/07/02 04:06:45;;;;;;;;;;;;;;;19.68;72.38;99654.97;107883;1254;71702;-81
2023/07/02 04:09:15;;;;;;;;;;;;;;;19.88;72.66;99648.52;107628;1254;123937;-82
2023/07/02 04:11:42;;;;;;;;;;;;;;;20.15;72.41;99644.82;107730;1254;60454;-81
2023/07/02 04:14:09;;;;;;;;;;;;;;;20.56;72.21;99641.88;107789;1254;124908;-82
2023/07/02 04:16:35;;;;;;;;;;;;;;;20.91;71.55;99645.16;108086;1256;65160;-81
2023/07/02 04:19:02;;;;;;;;;;;;;;;21.09;70.96;99637.04;107949;1254;72697;-82
2023/07/02 04:21:39;;;;;;;;;;;;;;;21.19;70.43;99640.40;107661;1254;125210;-81
2023/07/02 04:24:06;;;;;;;;;;;;;;;21.25;69.84;99641.11;107819;1254;383663;-81
2023/07/02 04:26:33;;;;;;;;;;;;;;;21.17;69.30;99638.34;108037;1254;124405;-81
2023/07/02 04:29:00;;;;;;;;;;;;;;;21.09;69.23;99635.25;107986;1254;65684;-81
2023/07/02 04:31:27;;;;;;;;;;;;;;;21.12;69.30;99636.39;108097;1254;71411;-81
2023/07/02 04:33:54;;;;;;;;;;;;;;;21.35;69.56;99633.05;107973;1254;124012;-81
2023/07/02 04:36:21;;;;;;;;;;;;;;;21.66;69.32;99632.96;108273;1254;60907;-81
2023/07/02 04:38:48;;;;;;;;;;;;;;;21.93;68.75;99626.20;108929;1254;124116;-81
2023/07/02 04:41:15;;;;;;;;;;;;;;;22.04;68.11;99632.02;109164;1254;65865;-82
2023/07/02 04:43:42;;;;;;;;;;;;;;;22.04;67.69;99629.90;108009;1254;71348;-81
2023/07/02 04:46:09;;;;;;;;;;;;;;;22.01;67.48;99627.67;107659;1255;124377;-81
2023/07/02 04:48:36;;;;;;;;;;;;;;;22.11;67.48;99627.43;107707;1258;61714;-81
2023/07/02 04:51:04;;;;;;;;;;;;;;;22.39;67.50;99627.96;107598;1254;125075;-81
2023/07/02 04:53:32;;;;;;;;;;;;;;;22.52;66.79;99624.71;107474;1254;65851;-81
2023/07/02 04:56:00;;;;;;;;;;;;;;;22.47;66.33;99627.06;107609;1254;124469;-81
2023/07/02 04:58:27;;;;;;;;;;;;;;;22.34;65.96;99628.88;107574;1256;60361;-80
2023/07/02 05:00:54;;;;;;;;;;;;;;;22.15;65.78;99629.62;107698;1254;60271;-81
2023/07/02 05:03:21;;;;;;;;;;;;;;;21.94;65.91;99627.60;107398;1260;124518;-82
2023/07/02 05:05:48;;;;;;;;;;;;;;;21.74;65.95;99625.52;107798;1259;67082;-81
2023/07/02 05:08:15;;;;;;;;;;;;;;;21.53;66.15;99627.23;107907;1254;124684;-81
2023/07/02 05:11:01;;;;;;;;;;;;;;;21.37;66.34;99629.56;107856;1257;59717;-82
2023/07/02 05:13:28;;;;;;;;;;;;;;;21.26;66.57;99627.69;107701;1259;61212;-80
2023/07/02 05:15:56;;;;;;;;;;;;;;;21.14;66.67;99627.22;107773;1256;124498;-82
2023/07/02 05:18:23;;;;;;;;;;;;;;;21.01;66.77;99626.96;108031;1255;65612;-81
2023/07/02 05:20:50;;;;;;;;;;;;;;;20.91;66.95;99628.38;107536;1257;124239;-81
2023/07/02 05:23:17;;;;;;;;;;;;;;;20.83;67.25;99629.58;107813;1254;61134;-81
2023/07/02 05:25:45;;;;;;;;;;;;;;;20.77;67.35;99632.09;107684;1255;59525;-81
2023/07/02 05:28:12;;;;;;;;;;;;;;;20.74;67.63;99630.96;107963;1254;124289;-83
2023/07/02 05:30:39;;;;;;;;;;;;;;;20.74;67.87;99632.20;107430;1259;67048;-83
2023/07/02 05:33:07;;;;;;;;;;;;;;;20.73;68.00;99630.45;107517;1254;124262;-82
2023/07/02 05:35:34;;;;;;;;;;;;;;;20.74;68.30;99633.45;107421;1254;60097;-83
2023/07/02 05:38:09;;;;;;;;;;;;;;;20.75;68.44;99631.99;107561;1254;124401;-82
2023/07/02 05:40:36;;;;;;;;;;;;;;;20.76;68.49;99635.15;107506;1256;75681;-81
2023/07/02 05:43:09;;;;;;;;;;;;;;;20.78;68.58;99630.63;107752;1256;65127;-81
2023/07/02 05:45:36;;;;;;;;;;;;;;;20.81;68.71;99631.95;107631;1254;125003;-82
2023/07/02 05:48:03;;;;;;;;;;;;;;;20.89;68.80;99630.41;108970;1254;59245;-82
2023/07/02 05:50:30;;;;;;;;;;;;;;;20.92;68.73;99629.06;108806;1256;125579;-82
2023/07/02 05:52:57;;;;;;;;;;;;;;;20.90;68.69;99628.97;109089;1254;75218;-82
2023/07/02 05:55:24;;;;;;;;;;;;;;;20.89;68.75;99629.89;109013;1254;67460;-82
2023/07/02 05:57:51;;;;;;;;;;;;;;;20.85;68.70;99625.40;108629;1257;124600;-82
2023/07/02 06:00:19;;;;;;;;;;;;;;;20.81;68.83;99627.87;107693;1254;59663;-82
2023/07/02 06:02:46;;;;;;;;;;;;;;;20.78;68.77;99628.66;107777;1254;125359;-81
2023/07/02 06:05:13;;;;;;;;;;;;;;;20.74;68.79;99625.23;107991;1254;74673;-82
2023/07/02 06:07:41;;;;;;;;;;;;;;;20.74;68.84;99621.86;107915;1254;66303;-82
2023/07/02 06:10:09;;;;;;;;;;;;;;;20.76;68.82;99626.05;107652;1256;123743;-82
2023/07/02 06:12:38;;;;;;;;;;;;;;;20.78;68.72;99631.16;107970;1254;61059;-81
2023/07/02 06:15:06;;;;;;;;;;;;;;;20.73;68.54;99634.73;107831;1256;123956;-83
2023/07/02 06:17:40;;;;;;;;;;;;;;;20.67;68.56;99631.55;107777;1254;75103;-84
2023/07/02 06:20:14;;;;;;;;;;;;;;;20.61;68.70;99633.54;107672;1254;124783;-83
2023/07/02 06:22:42;;;;;;;;;;;;;;;20.58;68.87;99633.41;107621;1254;71929;-83
2023/07/02 06:25:10;;;;;;;;;;;;;;;20.57;68.92;99629.36;107787;1254;60482;-83
2023/07/02 06:27:43;;;;;;;;;;;;;;;20.58;68.93;99626.98;107584;1254;125273;-83
2023/07/02 06:30:11;;;;;;;;;;;;;;;20.60;68.88;99626.26;107705;1254;72448;-83
2023/07/02 06:32:38;;;;;;;;;;;;;;;20.61;68.91;99624.44;107645;1254;124015;-83
2023/07/02 06:35:08;;;;;;;;;;;;;;;20.64;68.95;99622.19;107687;1254;72803;-83
2023/07/02 06:37:43;;;;;;;;;;;;;;;20.67;68.82;99623.17;107808;1254;59595;-83
2023/07/02 06:40:12;;;;;;;;;;;;;;;20.68;68.76;99619.91;108022;1257;124192;-83
2023/07/02 06:42:39;;;;;;;;;;;;;;;20.64;68.58;99623.08;107766;1254;74691;-83
2023/07/02 06:45:07;;;;;;;;;;;;;;;20.58;68.59;99622.20;107836;1254;123890;-83
2023/07/02 06:47:34;;;;;;;;;;;;;;;20.49;68.59;99626.79;107843;1256;72476;-83
2023/07/02 06:50:01;;;;;;;;;;;;;;;20.40;68.81;99627.96;107620;1256;124536;-82
2023/07/02 06:52:29;;;;;;;;;;;;;;;20.36;68.96;99623.30;107669;1254;62101;-83
2023/07/02 06:54:56;;;;;;;;;;;;;;;20.38;69.12;99626.23;107756;1254;74645;-84
2023/07/02 06:57:23;;;;;;;;;;;;;;;20.39;69.37;99624.26;107510;1255;124473;-82
2023/07/02 06:59:51;;;;;;;;;;;;;;;20.46;69.37;99621.55;108102;1254;72531;-82
2023/07/02 07:02:20;;;;;;;;;;;;;;;20.54;69.48;99625.55;108202;1254;124411;-82
2023/07/02 07:04:48;;;;;;;;;;;;;;;20.65;69.56;99629.30;107855;1254;59363;-83
2023/07/02 07:07:21;;;;;;;;;;;;;;;20.79;69.54;99630.25;107827;1254;72408;-83
2023/07/02 07:09:50;;;;;;;;;;;;;;;21.00;69.57;99631.31;107810;1253;125047;-83
2023/07/02 07:12:17;;;;;;;;;;;;;;;21.20;69.42;99633.41;107863;1254;72543;-85
2023/07/02 07:14:44;;;;;;;;;;;;;;;21.38;69.06;99638.10;107386;1256;124970;-84
2023/07/02 07:17:11;;;;;;;;;;;;;;;21.38;68.53;99635.59;107475;1258;60188;-84
2023/07/02 07:19:38;;;;;;;;;;;;;;;21.28;68.09;99637.77;107285;1257;73132;-83
2023/07/02 07:22:07;;;;;;;;;;;;;;;21.21;67.96;99642.30;107273;1253;124713;-83
2023/07/02 07:24:34;;;;;;;;;;;;;;;21.21;68.12;99645.71;107458;1254;72400;-84
2023/07/02 07:27:01;;;;;;;;;;;;;;;21.18;67.90;99644.02;107751;1256;124044;-84
2023/07/02 07:29:28;;;;;;;;;;;;;;;21.19;67.78;99647.93;107982;1254;61314;-84
2023/07/02 07:31:55;;;;;;;;;;;;;;;21.16;67.36;99651.76;108092;1254;124156;-82
2023/07/02 07:34:22;;;;;;;;;;;;;;;21.15;67.11;99650.38;107816;1254;67069;-83
2023/07/02 07:36:55;;;;;;;;;;;;;;;21.14;66.78;99660.05;107716;1254;72669;-83
2023/07/02 07:39:22;;;;;;;;;;;;;;;21.26;66.72;99665.52;108053;1254;124412;-85
2023/07/02 07:41:52;;;;;;;;;;;;;;;21.50;66.86;99667.87;107332;1254;61156;-85
2023/07/02 07:44:33;;;;;;;;;;;;;;;21.87;66.69;99669.33;107210;1257;124818;-84
2023/07/02 07:47:01;;;;;;;;;;;;;;;22.12;65.83;99670.67;107499;1255;66899;-85
2023/07/02 07:49:28;;;;;;;;;;;;;;;22.19;65.43;99673.58;107673;1253;73264;-85
2023/07/02 07:51:56;;;;;;;;;;;;;;;22.14;64.93;99678.63;107781;1254;124432;-84
2023/07/02 07:54:24;;;;;;;;;;;;;;;22.04;64.68;99676.88;107712;1256;60533;-86
2023/07/02 07:57:10;;;;;;;;;;;;;;;21.92;64.21;99684.11;107259;1256;124301;-86
2023/07/02 07:59:49;;;;;;;;;;;;;;;21.65;63.35;99684.62;107517;1254;66753;-87
2023/07/02 08:02:24;;;;;;;;;;;;;;;21.46;63.31;99688.35;107315;1254;125126;-87
2023/07/02 08:04:57;;;;;;;;;;;;;;;21.27;63.21;99693.13;107620;1256;61212;-86
2023/07/02 08:07:25;;;;;;;;;;;;;;;21.05;62.99;99701.39;107749;1256;59962;-85
2023/07/02 08:09:54;;;;;;;;;;;;;;;20.74;63.04;99704.40;107452;1254;124113;-86
2023/07/02 08:12:39;;;;;;;;;;;;;;;20.57;63.59;99708.31;107444;1254;66070;-85
2023/07/02 08:15:06;;;;;;;;;;;;;;;20.50;63.57;99716.39;107695;1255;124039;-83
2023/07/02 08:17:34;;;;;;;;;;;;;;;20.31;63.24;99726.08;108049;1257;59273;-82
2023/07/02 08:20:02;;;;;;;;;;;;;;;19.97;63.14;99723.89;107610;1254;124916;-82
2023/07/02 08:22:29;;;;;;;;;;;;;;;19.73;63.33;99723.38;108548;1257;74692;-82
2023/07/02 08:24:56;;;;;;;;;;;;;;;19.44;63.49;99722.02;107760;1256;67347;-83
2023/07/02 08:27:26;;;;;;;;;;;;;;;19.16;63.69;99724.92;107315;1254;125030;-82
2023/07/02 08:29:54;;;;;;;;;;;;;;;18.92;64.09;99719.67;107683;1257;59957;-80
2023/07/02 08:32:21;;;;;;;;;;;;;;;18.77;64.48;99725.17;108355;1255;125373;-80
2023/07/02 08:34:50;;;;;;;;;;;;;;;18.66;64.85;99731.85;108055;1254;74482;-82
2023/07/02 08:37:18;;;;;;;;;;;;;;;18.58;65.17;99734.34;107453;1256;67017;-80
2023/07/02 08:39:45;;;;;;;;;;;;;;;18.59;65.57;99735.75;107544;1254;123846;-81
2023/07/02 08:42:12;;;;;;;;;;;;;;;18.67;65.91;99732.70;108034;1255;62076;-81
2023/07/02 08:44:42;;;;;;;;;;;;;;;18.81;66.07;99732.91;107734;1257;124979;-82
2023/07/02 08:47:10;;;;;;;;;;;;;;;18.95;66.14;99734.18;107834;1257;74436;-81
2023/07/02 08:49:37;;;;;;;;;;;;;;;19.06;66.12;99735.31;107866;1255;66835;-82
2023/07/02 08:52:04;;;;;;;;;;;;;;;19.25;66.25;99736.78;107915;1254;125337;-82
2023/07/02 08:54:31;;;;;;;;;;;;;;;19.59;66.46;99740.27;108021;1256;59407;-81
2023/07/02 08:57:04;;;;;;;;;;;;;;;20.07;66.32;99740.36;107566;1254;124732;-81
2023/07/02 08:59:32;;;;;;;;;;;;;;;20.63;66.07;99735.42;107637;1255;74448;-81
2023/07/02 09:02:00;;;;;;;;;;;;;;;21.16;65.51;99734.71;107740;1254;125376;-82
2023/07/02 09:04:28;;;;;;;;;;;;;;;21.64;64.85;99736.79;108845;1256;71406;-82
2023/07/02 09:07:09;;;;;;;;;;;;;;;22.02;64.15;99730.35;108963;1254;59263;-82
2023/07/02 09:10:09;;;;;;;;;;;;;;;22.34;63.46;99729.87;108958;1255;124264;-82
2023/07/02 09:12:39;;;;;;;;;;;;;;;22.50;62.48;99731.55;109105;1253;74953;-80
2023/07/02 09:15:10;;;;;;;;;;;;;;;22.49;61.88;99729.25;108879;1254;124604;-80
2023/07/02 09:17:38;;;;;;;;;;;;;;;22.60;61.36;99726.52;108458;1254;71401;-80
2023/07/02 09:20:09;;;;;;;;;;;;;;;22.79;61.17;99737.14;107176;1254;124695;-82
2023/07/02 09:22:40;;;;;;;;;;;;;;;23.13;60.17;99737.20;107649;1255;60566;-81
2023/07/02 09:25:09;;;;;;;;;;;;;;;23.36;59.35;99735.67;107657;1260;73832;-81
2023/07/02 09:27:43;;;;;;;;;;;;;;;23.37;57.89;99736.69;107673;1254;124270;-83
2023/07/02 09:30:13;;;;;;;;;;;;;;;23.28;57.65;99735.84;107601;1256;72761;-82
2023/07/02 09:32:46;;;;;;;;;;;;;;;23.20;57.30;99728.13;107432;1254;124791;-83
2023/07/02 09:35:16;;;;;;;;;;;;;;;23.15;57.16;99734.41;107671;1254;61202;-82
2023/07/02 09:37:44;;;;;;;;;;;;;;;23.12;56.31;99729.18;107788;1254;73445;-80
2023/07/02 09:40:16;;;;;;;;;;;;;;;23.06;55.71;99727.10;107814;1254;124610;-81
2023/07/02 09:42:46;;;;;;;;;;;;;;;23.06;55.52;99724.77;107469;1254;71856;-82
2023/07/02 09:45:14;;;;;;;;;;;;;;;23.15;55.09;99727.98;107312;1257;124836;-82
2023/07/02 09:47:46;;;;;;;;;;;;;;;23.18;55.09;99725.90;107498;1254;61666;-81
2023/07/02 09:50:14;;;;;;;;;;;;;;;23.19;54.77;99724.78;107374;1256;124812;-81
2023/07/02 09:52:52;;;;;;;;;;;;;;;23.36;55.08;99727.25;107574;1259;67378;-84
2023/07/02 09:55:21;;;;;;;;;;;;;;;23.55;54.70;99729.08;107750;1255;71452;-83
2023/07/02 09:57:55;;;;;;;;;;;;;;;23.74;54.25;99723.58;107457;1260;123958;-82
2023/07/02 10:00:23;;;;;;;;;;;;;;;23.91;53.84;99722.97;107701;1254;59696;-82
2023/07/02 10:02:53;;;;;;;;;;;;;;;24.06;53.58;99722.84;107848;1256;123878;-84
2023/07/02 10:05:43;;;;;;;;;;;;;;;24.14;52.72;99730.67;107830;1256;66781;-84
2023/07/02 10:08:17;;;;;;;;;;;;;;;24.20;52.44;99733.11;107491;1254;124770;-83
2023/07/02 10:10:48;;;;;;;;;;;;;;;24.34;52.28;99737.06;107455;1254;59212;-84
2023/07/02 10:13:26;;;;;;;;;;;;;;;24.50;51.91;99743.70;107441;1254;61267;-85
2023/07/02 10:16:06;;;;;;;;;;;;;;;24.54;50.94;99740.84;107232;1254;124487;-84
2023/07/02 10:18:34;;;;;;;;;;;;;;;24.38;50.63;99743.73;107510;1257;65801;-81
2023/07/02 10:21:17;;;;;;;;;;;;;;;24.41;50.96;99747.33;107785;1256;124012;-81
2023/07/02 10:23:49;;;;;;;;;;;;;;;24.70;50.82;99745.61;107590;1254;60567;-84
2023/07/02 10:26:17;;;;;;;;;;;;;;;24.79;49.91;99744.05;107251;1253;124761;-84
2023/07/02 10:28:56;;;;;;;;;;;;;;;24.55;49.46;99742.58;107457;1254;73451;-83
2023/07/02 10:31:24;;;;;;;;;;;;;;;24.32;49.76;99749.94;107663;1256;66366;-83
2023/07/02 10:33:51;;;;;;;;;;;;;;;23.94;49.16;99762.10;107602;1254;124892;-83
2023/07/02 10:36:23;;;;;;;;;;;;;;;23.37;49.26;99760.15;108986;1256;59417;-83
2023/07/02 10:38:50;;;;;;;;;;;;;;;23.04;49.88;99760.27;108258;1254;124188;-83
2023/07/02 10:41:28;;;;;;;;;;;;;;;22.84;50.05;99768.60;107524;1254;75290;-83
2023/07/02 10:44:11;;;;;;;;;;;;;;;22.52;50.13;99772.77;108314;1255;124310;-82
2023/07/02 10:46:46;;;;;;;;;;;;;;;22.19;50.42;99779.55;107621;1254;73433;-81
2023/07/02 10:49:14;;;;;;;;;;;;;;;21.99;50.83;99779.78;107426;1255;59989;-81
2023/07/02 10:51:42;;;;;;;;;;;;;;;21.76;51.11;99784.90;107467;1259;124461;-89
2023/07/02 10:54:34;;;;;;;;;;;;;;;21.64;51.72;99792.50;107838;1256;74433;-89
2023/07/02 10:57:02;;;;;;;;;;;;;;;21.59;52.09;99795.36;107805;1255;122892;-89
2023/07/02 10:59:46;;;;;;;;;;;;;;;21.57;52.32;99799.17;107965;1256;72519;-91
2023/07/02 11:02:19;;;;;;;;;;;;;;;21.54;52.38;99807.30;107665;1256;124320;-89
2023/07/02 11:04:46;;;;;;;;;;;;;;;21.51;52.22;99812.23;107873;1255;59907;-89
2023/07/02 11:07:22;;;;;;;;;;;;;;;21.41;51.91;99817.36;107751;1254;74336;-89
2023/07/02 11:09:50;;;;;;;;;;;;;;;21.35;52.02;99823.80;107603;1254;123955;-87
2023/07/02 11:12:27;;;;;;;;;;;;;;;21.48;51.96;99830.17;107581;1254;72392;-87
2023/07/02 11:14:55;;;;;;;;;;;;;;;21.54;51.18;99835.84;107479;1259;124470;-84
2023/07/02 11:17:27;;;;;;;;;;;;;;;21.55;50.61;99838.50;107585;1254;61346;-83
2023/07/02 11:20:00;;;;;;;;;;;;;;;21.60;50.05;99837.45;107704;1254;124398;-83
2023/07/02 11:22:33;;;;;;;;;;;;;;;21.70;50.09;99834.05;107518;1256;67290;-82
2023/07/02 11:25:10;;;;;;;;;;;;;;;21.96;49.82;99832.39;107547;1254;72078;-83
2023/07/02 11:27:41;;;;;;;;;;;;;;;22.26;49.74;99826.14;107824;1257;124634;-83
2023/07/02 11:30:09;;;;;;;;;;;;;;;22.52;49.14;99838.04;108025;1255;59964;-82
2023/07/02 11:32:50;;;;;;;;;;;;;;;22.64;49.06;99836.67;107662;1254;124239;-82
2023/07/02 11:35:17;;;;;;;;;;;;;;;22.85;48.87;99843.70;107829;1254;65723;-82
2023/07/02 11:37:45;;;;;;;;;;;;;;;22.88;48.49;99841.27;107873;1255;72733;-82
2023/07/02 11:40:15;;;;;;;;;;;;;;;22.84;48.26;99838.02;107716;1257;125654;-82
2023/07/02 11:42:43;;;;;;;;;;;;;;;22.88;48.08;99830.52;107973;1257;59506;-82
2023/07/02 11:45:10;;;;;;;;;;;;;;;22.90;47.94;99830.98;107715;1256;124060;-82
2023/07/02 11:47:38;;;;;;;;;;;;;;;23.02;47.73;99836.43;107692;1254;67007;-82
2023/07/02 11:50:05;;;;;;;;;;;;;;;23.12;47.55;99838.15;107452;1257;124683;-83
2023/07/02 11:52:32;;;;;;;;;;;;;;;23.26;47.54;99838.30;107732;1256;59977;-83
2023/07/02 11:54:59;;;;;;;;;;;;;;;23.35;47.21;99825.92;107676;1253;61613;-80
2023/07/02 11:57:27;;;;;;;;;;;;;;;23.39;47.28;99823.42;107615;1254;124476;-81
2023/07/02 11:59:53;;;;;;;;;;;;;;;23.17;46.80;99822.17;107639;1256;66102;-83
2023/07/02 12:02:21;;;;;;;;;;;;;;;22.75;46.87;99823.35;107584;1253;124875;-82
2023/07/02 12:04:52;;;;;;;;;;;;;;;22.41;47.26;99824.31;108250;1254;59374;-83
2023/07/02 12:07:20;;;;;;;;;;;;;;;22.25;47.58;99829.73;108019;1255;59903;-82
2023/07/02 12:09:47;;;;;;;;;;;;;;;22.14;47.59;99837.10;107728;1254;124148;-82
2023/07/02 12:12:14;;;;;;;;;;;;;;;22.01;47.44;99831.69;107561;1253;67380;-82
2023/07/02 12:14:43;;;;;;;;;;;;;;;21.85;47.30;99841.73;107491;1254;124277;-81
2023/07/02 12:17:13;;;;;;;;;;;;;;;21.70;47.50;99842.61;107592;1254;59417;-81
2023/07/02 12:19:41;;;;;;;;;;;;;;;21.67;47.98;99846.48;107665;1253;61460;-81
2023/07/02 12:22:09;;;;;;;;;;;;;;;21.72;48.18;99843.78;107657;1253;124073;-84
2023/07/02 12:24:37;;;;;;;;;;;;;;;21.88;48.08;99842.89;107683;1260;65581;-82
2023/07/02 12:27:04;;;;;;;;;;;;;;;22.08;48.07;99844.85;107467;1260;123900;-82
2023/07/02 12:29:33;;;;;;;;;;;;;;;22.23;47.90;99837.66;107643;1254;59557;-83
2023/07/02 12:32:00;;;;;;;;;;;;;;;22.35;47.90;99842.23;107751;1254;124626;-82
2023/07/02 12:34:29;;;;;;;;;;;;;;;22.46;47.53;99838.25;107646;1256;73229;-81
2023/07/02 12:36:56;;;;;;;;;;;;;;;22.65;47.30;99842.54;108149;1254;65595;-81
2023/07/02 12:39:24;;;;;;;;;;;;;;;22.91;47.01;99843.97;108169;1256;124581;-81
2023/07/02 12:41:51;;;;;;;;;;;;;;;23.25;46.65;99845.50;107981;1254;59877;-81
2023/07/02 12:44:19;;;;;;;;;;;;;;;23.38;46.49;99847.27;107770;1256;124325;-81